createdAt,value
2022-09-30T00:00:22.711Z,87.02
2022-09-30T00:05:24.389Z,87.01
2022-09-30T00:10:26.417Z,86.99
2022-09-30T00:15:28.527Z,86.94
2022-09-30T00:20:30.875Z,86.87
2022-09-30T00:25:32.917Z,86.80
2022-09-30T00:30:34.832Z,86.74
2022-09-30T00:35:43.535Z,86.63
2022-09-30T00:40:46.008Z,86.52
2022-09-30T00:45:58.006Z,86.44
2022-09-30T00:51:02.779Z,86.43
2022-09-30T00:56:17.237Z,86.51
2022-09-30T01:01:19.725Z,86.46
2022-09-30T01:06:23.299Z,86.46
2022-09-30T01:11:26.859Z,86.41
2022-09-30T01:17:06.829Z,86.40
2022-09-30T01:22:23.870Z,86.45
2022-09-30T01:27:36.856Z,86.52
2022-09-30T01:32:45.213Z,86.52
2022-09-30T01:37:56.059Z,86.57
2022-09-30T01:43:11.776Z,86.73
2022-09-30T01:48:26.109Z,86.81
2022-09-30T01:53:39.634Z,86.90
2022-09-30T01:58:51.794Z,86.94
2022-09-30T02:04:01.908Z,86.93
2022-09-30T02:09:13.667Z,86.95
2022-09-30T02:14:28.331Z,86.97
2022-09-30T02:19:37.986Z,86.97
2022-09-30T02:24:41.186Z,86.95
2022-09-30T02:29:47.696Z,86.87
2022-09-30T02:34:55.498Z,86.77
2022-09-30T02:40:13.836Z,86.70
2022-09-30T02:45:22.705Z,86.68
2022-09-30T02:51:23.362Z,86.56
2022-09-30T02:56:41.303Z,86.42
2022-09-30T03:01:47.416Z,86.26
2022-09-30T03:06:49.675Z,86.18
2022-09-30T03:11:55.624Z,86.12
2022-09-30T03:17:36.644Z,86.10
2022-09-30T03:22:54.744Z,85.94
2022-09-30T03:28:22.876Z,85.79
2022-09-30T03:33:48.107Z,85.67
2022-09-30T03:39:13.305Z,85.57
2022-09-30T03:44:56.219Z,85.63
2022-09-30T03:50:02.861Z,85.76
2022-09-30T03:55:08.726Z,85.86
2022-09-30T04:00:13.281Z,86.04
2022-09-30T04:05:15.111Z,86.11
2022-09-30T04:10:16.936Z,86.12
2022-09-30T04:15:19.364Z,86.13
2022-09-30T04:20:21.065Z,86.19
2022-09-30T04:25:22.822Z,86.24
2022-09-30T04:30:27.172Z,86.23
2022-09-30T04:35:30.222Z,86.13
2022-09-30T04:40:32.278Z,86.09
2022-09-30T04:45:57.104Z,86.09
2022-09-30T04:51:00.501Z,86.15
2022-09-30T04:56:02.377Z,86.19
2022-09-30T05:01:13.187Z,86.27
2022-09-30T05:06:14.998Z,86.36
2022-09-30T05:11:19.290Z,86.46
2022-09-30T05:16:22.117Z,86.52
2022-09-30T05:21:23.806Z,86.63
2022-09-30T05:26:25.849Z,86.66
2022-09-30T05:31:28.043Z,86.60
2022-09-30T05:36:34.179Z,86.51
2022-09-30T05:41:36.044Z,86.47
2022-09-30T05:46:37.946Z,86.46
2022-09-30T05:51:40.775Z,86.47
2022-09-30T05:56:43.461Z,86.27
2022-09-30T06:01:45.693Z,86.09
2022-09-30T06:06:47.844Z,86.00
2022-09-30T06:11:49.570Z,86.00
2022-09-30T06:16:52.067Z,86.06
2022-09-30T06:21:54.079Z,86.06
2022-09-30T06:26:55.890Z,86.15
2022-09-30T06:31:58.146Z,86.12
2022-09-30T06:37:00.085Z,86.12
2022-09-30T06:42:01.999Z,86.21
2022-09-30T06:47:04.696Z,86.39
2022-09-30T06:52:09.573Z,86.45
2022-09-30T06:57:11.307Z,86.38
2022-09-30T07:02:13.443Z,86.45
2022-09-30T07:07:15.577Z,86.55
2022-09-30T07:12:18.240Z,86.61
2022-09-30T07:17:20.083Z,87.01
2022-09-30T07:22:36.045Z,87.18
2022-09-30T07:27:51.617Z,87.58
2022-09-30T07:32:53.715Z,87.62
2022-09-30T07:37:55.414Z,87.59
2022-09-30T07:42:58.504Z,87.28
2022-09-30T07:48:00.436Z,87.44
2022-09-30T07:53:09.052Z,87.51
2022-09-30T07:58:17.508Z,87.23
2022-09-30T08:03:19.310Z,87.21
2022-09-30T08:08:21.114Z,87.29
2022-09-30T08:13:23.365Z,87.22
2022-09-30T08:18:36.099Z,87.48
2022-09-30T08:23:44.522Z,87.58
2022-09-30T08:28:48.450Z,87.51
2022-09-30T08:33:50.950Z,87.30
2022-09-30T08:38:53.510Z,87.49
2022-09-30T08:44:16.434Z,87.55
2022-09-30T08:49:36.854Z,87.91
2022-09-30T08:54:43.514Z,87.55
2022-09-30T08:59:48.973Z,87.36
2022-09-30T09:05:00.789Z,87.16
2022-09-30T09:10:16.513Z,87.18
2022-09-30T09:15:37.753Z,87.12
2022-09-30T09:20:47.467Z,87.24
2022-09-30T09:25:53.059Z,87.61
2022-09-30T09:30:58.894Z,87.47
2022-09-30T09:36:03.600Z,87.33
2022-09-30T09:41:11.303Z,87.16
2022-09-30T09:46:28.142Z,87.24
2022-09-30T09:51:36.101Z,86.57
2022-09-30T09:56:38.007Z,86.60
2022-09-30T10:01:50.566Z,86.30
2022-09-30T10:06:54.431Z,86.30
2022-09-30T10:12:08.094Z,86.30
2022-09-30T10:17:22.178Z,86.11
2022-09-30T10:22:32.373Z,85.68
2022-09-30T10:27:36.935Z,86.21
2022-09-30T10:32:38.860Z,85.67
2022-09-30T10:37:53.219Z,86.24
2022-09-30T10:42:56.664Z,86.17
2022-09-30T10:48:14.275Z,85.80
2022-09-30T10:53:30.918Z,86.03
2022-09-30T10:58:48.605Z,86.48
2022-09-30T11:04:02.789Z,86.22
2022-09-30T11:09:33.456Z,86.20
2022-09-30T11:14:56.902Z,85.52
2022-09-30T11:20:10.693Z,85.52
2022-09-30T11:25:19.753Z,85.58
2022-09-30T11:30:38.034Z,85.44
2022-09-30T11:35:46.259Z,85.11
2022-09-30T11:40:53.702Z,85.20
2022-09-30T11:46:24.138Z,85.39
2022-09-30T11:51:32.203Z,85.55
2022-09-30T11:56:51.006Z,85.63
2022-09-30T12:01:54.568Z,85.36
2022-09-30T12:06:58.450Z,85.03
2022-09-30T12:12:02.203Z,85.06
2022-09-30T12:17:12.001Z,85.09
2022-09-30T12:22:41.810Z,85.05
2022-09-30T12:28:40.431Z,85.32
2022-09-30T12:34:09.173Z,85.44
2022-09-30T12:39:25.603Z,85.25
2022-09-30T12:44:51.331Z,85.32
2022-09-30T12:49:56.301Z,85.35
2022-09-30T12:55:36.001Z,84.97
2022-09-30T13:00:58.634Z,85.04
2022-09-30T13:06:06.668Z,84.55
2022-09-30T13:12:00.997Z,84.44
2022-09-30T13:17:25.026Z,84.12
2022-09-30T13:22:41.781Z,84.17
2022-09-30T13:27:45.636Z,84.33
2022-09-30T13:33:05.297Z,84.31
2022-09-30T13:38:13.560Z,84.28
2022-09-30T13:43:42.648Z,84.22
2022-09-30T13:49:19.622Z,84.04
2022-09-30T13:54:35.304Z,84.08
2022-09-30T13:59:59.196Z,83.47
2022-09-30T14:05:36.875Z,83.17
2022-09-30T14:11:11.899Z,83.43
2022-09-30T14:16:35.428Z,83.68
2022-09-30T14:21:49.723Z,83.41
2022-09-30T14:27:16.845Z,83.33
2022-09-30T14:32:46.316Z,83.45
2022-09-30T14:38:01.957Z,83.93
2022-09-30T14:43:13.441Z,83.45
2022-09-30T14:48:20.487Z,83.42
2022-09-30T14:53:28.973Z,83.42
2022-09-30T14:58:42.693Z,83.79
2022-09-30T15:04:15.102Z,83.76
2022-09-30T15:09:34.646Z,83.38
2022-09-30T15:14:50.747Z,83.75
2022-09-30T15:19:55.882Z,84.02
2022-09-30T15:25:04.892Z,84.15
2022-09-30T15:30:15.766Z,83.93
2022-09-30T15:35:21.905Z,84.16
2022-09-30T15:40:46.362Z,84.30
2022-09-30T15:45:50.652Z,84.24
2022-09-30T15:50:56.233Z,83.76
2022-09-30T15:56:22.601Z,83.95
2022-09-30T16:01:46.716Z,84.29
2022-09-30T16:06:58.794Z,84.22
2022-09-30T16:12:08.834Z,84.18
2022-09-30T16:17:19.533Z,84.34
2022-09-30T16:22:33.810Z,84.72
2022-09-30T16:27:36.079Z,85.07
2022-09-30T16:32:41.883Z,85.39
2022-09-30T16:37:44.425Z,85.57
2022-09-30T16:42:47.046Z,85.62
2022-09-30T16:47:50.614Z,85.68
2022-09-30T16:52:52.813Z,86.05
2022-09-30T16:57:59.620Z,86.21
2022-09-30T17:03:01.496Z,86.47
2022-09-30T17:08:03.485Z,86.59
2022-09-30T17:13:06.383Z,86.55
2022-09-30T17:18:10.474Z,86.49
2022-09-30T17:23:13.113Z,85.86
2022-09-30T17:28:16.063Z,85.94
2022-09-30T17:33:19.765Z,86.01
2022-09-30T17:38:21.810Z,85.62
2022-09-30T17:43:25.864Z,86.04
2022-09-30T17:48:28.048Z,86.04
2022-09-30T17:53:31.097Z,86.47
2022-09-30T17:58:33.527Z,86.35
2022-09-30T18:03:36.669Z,85.99
2022-09-30T18:08:41.995Z,85.89
2022-09-30T18:13:57.865Z,86.20
2022-09-30T18:19:16.122Z,86.15
2022-09-30T18:24:38.493Z,86.37
2022-09-30T18:29:42.558Z,86.64
2022-09-30T18:34:44.754Z,86.79
2022-09-30T18:39:46.991Z,87.17
2022-09-30T18:44:51.144Z,87.42
2022-09-30T18:49:53.225Z,87.47
2022-09-30T18:54:55.357Z,87.20
2022-09-30T18:59:58.100Z,87.21
2022-09-30T19:05:09.023Z,87.06
2022-09-30T19:10:18.572Z,87.10
2022-09-30T19:15:21.977Z,87.33
2022-09-30T19:20:25.617Z,87.33
2022-09-30T19:25:27.737Z,87.60
2022-09-30T19:30:29.759Z,87.45
2022-09-30T19:35:39.512Z,87.43
2022-09-30T19:40:43.736Z,87.65
2022-09-30T19:45:55.169Z,87.65
2022-09-30T19:51:02.628Z,87.63
2022-09-30T19:56:17.697Z,87.72
2022-09-30T20:01:25.390Z,87.69
2022-09-30T20:06:28.451Z,87.58
2022-09-30T20:11:36.194Z,87.43
2022-09-30T20:16:38.947Z,87.22
2022-09-30T20:21:44.109Z,87.11
2022-09-30T20:26:47.282Z,87.20
2022-09-30T20:31:50.500Z,87.35
2022-09-30T20:36:52.461Z,87.25
2022-09-30T20:41:55.988Z,87.24
2022-09-30T20:46:58.386Z,87.17
2022-09-30T20:52:02.868Z,87.18
2022-09-30T20:57:08.158Z,87.12
2022-09-30T21:02:14.033Z,87.08
2022-09-30T21:07:16.042Z,87.06
2022-09-30T21:12:20.285Z,87.10
2022-09-30T21:17:22.176Z,87.09
2022-09-30T21:22:24.158Z,87.21
2022-09-30T21:27:25.872Z,87.16
2022-09-30T21:32:29.016Z,87.01
2022-09-30T21:37:31.004Z,87.18
2022-09-30T21:42:32.763Z,87.17
2022-09-30T21:47:34.427Z,87.08
2022-09-30T21:52:38.175Z,87.11
2022-09-30T21:57:40.205Z,87.27
2022-09-30T22:02:42.058Z,87.32
2022-09-30T22:07:44.125Z,87.34
2022-09-30T22:12:46.431Z,87.34
2022-09-30T22:17:51.322Z,87.64
2022-09-30T22:22:53.438Z,87.61
2022-09-30T22:27:55.465Z,87.63
2022-09-30T22:33:21.978Z,87.53
2022-09-30T22:38:27.943Z,87.24
2022-09-30T22:43:32.137Z,87.07
2022-09-30T22:48:34.970Z,87.18
2022-09-30T22:53:38.806Z,87.33
2022-09-30T22:58:40.743Z,87.43
2022-09-30T23:03:43.461Z,87.53
2022-09-30T23:08:46.280Z,87.59
2022-09-30T23:13:48.048Z,87.49
2022-09-30T23:18:59.595Z,87.25
2022-09-30T23:24:51.327Z,87.28
2022-09-30T23:29:54.989Z,87.13
2022-09-30T23:34:56.749Z,87.03
2022-09-30T23:39:58.643Z,87.05
2022-09-30T23:45:00.444Z,87.12
2022-09-30T23:50:02.326Z,87.14
2022-09-30T23:55:04.733Z,87.23
